sensor_id;sensor_type;location;lat;lon;timestamp;pressure;altitude;pressure_sealevel;temperature;humidity
5238;BME280;2639;49.700;7.962;2023-06-26T03:05:50;98685.47;;;15.12;92.18
5238;BME280;2639;49.700;7.962;2023-06-26T03:06:53;98690.63;;;15.12;92.11
5238;BME280;2639;49.700;7.962;2023-06-26T03:07:56;98684.56;;;15.11;91.88
5238;BME280;2639;49.700;7.962;2023-06-26T03:08:58;98686.28;;;15.11;92.09
5238;BME280;2639;49.700;7.962;2023-06-26T03:10:02;98689.66;;;15.10;92.01
5238;BME280;2639;49.700;7.962;2023-06-26T03:11:04;98681.09;;;15.11;92.39
5238;BME280;2639;49.700;7.962;2023-06-26T03:12:08;98689.81;;;15.13;91.80
5238;BME280;2639;49.700;7.962;2023-06-26T03:13:12;98689.03;;;15.14;91.89
5238;BME280;2639;49.700;7.962;2023-06-26T03:14:16;98686.44;;;15.14;91.63
5238;BME280;2639;49.700;7.962;2023-06-26T03:15:18;98691.72;;;15.15;91.69
5238;BME280;2639;49.700;7.962;2023-06-26T03:16:22;98689.03;;;15.14;92.14
5238;BME280;2639;49.700;7.962;2023-06-26T03:17:24;98686.44;;;15.14;92.29
5238;BME280;2639;49.700;7.962;2023-06-26T03:18:32;98692.41;;;15.13;92.61
5238;BME280;2639;49.700;7.962;2023-06-26T03:19:35;98685.47;;;15.12;92.54
5238;BME280;2639;49.700;7.962;2023-06-26T03:20:50;98687.94;;;15.10;92.41
5238;BME280;2639;49.700;7.962;2023-06-26T03:21:55;98685.31;;;15.09;92.46
5238;BME280;2639;49.700;7.962;2023-06-26T03:22:58;98687.06;;;15.10;92.65
5238;BME280;2639;49.700;7.962;2023-06-26T03:24:02;98684.38;;;15.08;92.27
5238;BME280;2639;49.700;7.962;2023-06-26T03:25:04;98687.88;;;15.09;92.26
5238;BME280;2639;49.700;7.962;2023-06-26T03:26:07;98685.31;;;15.09;92.71
5238;BME280;2639;49.700;7.962;2023-06-26T03:27:12;98682.72;;;15.09;92.79
5238;BME280;2639;49.700;7.962;2023-06-26T03:28:19;98680.13;;;15.09;92.67
5238;BME280;2639;49.700;7.962;2023-06-26T03:29:21;98679.41;;;15.11;93.24
5238;BME280;2639;49.700;7.962;2023-06-26T03:30:24;98681.88;;;15.10;92.64
5238;BME280;2639;49.700;7.962;2023-06-26T03:31:29;98679.31;;;15.10;92.77
5238;BME280;2639;49.700;7.962;2023-06-26T03:32:33;98681.88;;;15.10;93.18
5238;BME280;2639;49.700;7.962;2023-06-26T03:33:37;98680.28;;;15.12;92.42
5238;BME280;2639;49.700;7.962;2023-06-26T03:34:42;98682.06;;;15.13;92.82
5238;BME280;2639;49.700;7.962;2023-06-26T03:35:44;98683.84;;;15.14;91.91
5238;BME280;2639;49.700;7.962;2023-06-26T03:36:50;98682.06;;;15.13;92.25
5238;BME280;2639;49.700;7.962;2023-06-26T03:37:53;98678.59;;;15.12;91.89
5238;BME280;2639;49.700;7.962;2023-06-26T03:38:55;98684.63;;;15.13;92.51
5238;BME280;2639;49.700;7.962;2023-06-26T03:39:59;98677.69;;;15.12;92.47
5238;BME280;2639;49.700;7.962;2023-06-26T03:41:05;98675.13;;;15.12;92.69
5238;BME280;2639;49.700;7.962;2023-06-26T03:42:08;98681.09;;;15.11;92.94
5238;BME280;2639;49.700;7.962;2023-06-26T03:43:10;98680.28;;;15.12;92.56
5238;BME280;2639;49.700;7.962;2023-06-26T03:44:22;98678.59;;;15.12;92.97
5238;BME280;2639;49.700;7.962;2023-06-26T03:45:24;98678.59;;;15.12;92.82
5238;BME280;2639;49.700;7.962;2023-06-26T03:46:29;98678.69;;;15.14;92.24
5238;BME280;2639;49.700;7.962;2023-06-26T03:47:32;98669.13;;;15.13;92.51
5238;BME280;2639;49.700;7.962;2023-06-26T03:48:37;98678.69;;;15.14;91.71
5238;BME280;2639;49.700;7.962;2023-06-26T03:49:39;98674.38;;;15.14;92.38
5238;BME280;2639;49.700;7.962;2023-06-26T03:50:43;98671.03;;;15.15;91.81
5238;BME280;2639;49.700;7.962;2023-06-26T03:51:46;98677.97;;;15.17;92.53
5238;BME280;2639;49.700;7.962;2023-06-26T03:52:50;98676.19;;;15.15;91.87
5238;BME280;2639;49.700;7.962;2023-06-26T03:53:53;98671.91;;;15.16;92.28
5238;BME280;2639;49.700;7.962;2023-06-26T03:54:56;98679.66;;;15.16;91.69
5238;BME280;2639;49.700;7.962;2023-06-26T03:55:59;98673.50;;;15.14;91.71
5238;BME280;2639;49.700;7.962;2023-06-26T03:57:02;98671.91;;;15.16;92.57
5238;BME280;2639;49.700;7.962;2023-06-26T03:58:04;98675.38;;;15.17;92.24
5238;BME280;2639;49.700;7.962;2023-06-26T03:59:08;98678.84;;;15.17;92.01
5238;BME280;2639;49.700;7.962;2023-06-26T04:00:11;98674.56;;;15.18;92.76
5238;BME280;2639;49.700;7.962;2023-06-26T04:01:18;98677.13;;;15.18;92.20
5238;BME280;2639;49.700;7.962;2023-06-26T04:02:24;98679.81;;;15.19;92.06
5238;BME280;2639;49.700;7.962;2023-06-26T04:03:26;98673.84;;;15.20;92.25
5238;BME280;2639;49.700;7.962;2023-06-26T04:04:29;98674.75;;;15.21;92.41
5238;BME280;2639;49.700;7.962;2023-06-26T04:05:33;98673.13;;;15.23;92.50
5238;BME280;2639;49.700;7.962;2023-06-26T04:06:36;98671.44;;;15.23;92.62
5238;BME280;2639;49.700;7.962;2023-06-26T04:07:39;98673.19;;;15.24;92.17
5238;BME280;2639;49.700;7.962;2023-06-26T04:08:43;98667.22;;;15.25;92.56
5238;BME280;2639;49.700;7.962;2023-06-26T04:09:45;98664.66;;;15.25;92.16
5238;BME280;2639;49.700;7.962;2023-06-26T04:10:51;98679.34;;;15.26;92.62
5238;BME280;2639;49.700;7.962;2023-06-26T04:11:54;98672.41;;;15.25;92.21
5238;BME280;2639;49.700;7.962;2023-06-26T04:12:57;98672.41;;;15.25;92.79
5238;BME280;2639;49.700;7.962;2023-06-26T04:13:59;98669.00;;;15.26;92.55
5238;BME280;2639;49.700;7.962;2023-06-26T04:15:02;98670.81;;;15.27;92.43
5238;BME280;2639;49.700;7.962;2023-06-26T04:16:05;98677.75;;;15.28;92.28
5238;BME280;2639;49.700;7.962;2023-06-26T04:17:08;98673.38;;;15.27;92.54
5238;BME280;2639;49.700;7.962;2023-06-26T04:18:11;98676.84;;;15.28;92.55
5238;BME280;2639;49.700;7.962;2023-06-26T04:19:14;98676.03;;;15.29;93.00
5238;BME280;2639;49.700;7.962;2023-06-26T04:20:16;98679.53;;;15.29;92.91
5238;BME280;2639;49.700;7.962;2023-06-26T04:21:20;98681.41;;;15.32;92.40
5238;BME280;2639;49.700;7.962;2023-06-26T04:22:22;98668.53;;;15.33;93.10
5238;BME280;2639;49.700;7.962;2023-06-26T04:23:25;98682.44;;;15.35;92.61
5238;BME280;2639;49.700;7.962;2023-06-26T04:24:29;98676.47;;;15.36;92.44
5238;BME280;2639;49.700;7.962;2023-06-26T04:25:32;98674.84;;;15.39;92.75
5238;BME280;2639;49.700;7.962;2023-06-26T04:26:34;98676.63;;;15.40;93.56
5238;BME280;2639;49.700;7.962;2023-06-26T04:27:38;98687.88;;;15.40;93.53
5238;BME280;2639;49.700;7.962;2023-06-26T04:28:42;98673.22;;;15.41;93.68
5238;BME280;2639;49.700;7.962;2023-06-26T04:29:48;98672.34;;;15.40;93.73
5238;BME280;2639;49.700;7.962;2023-06-26T04:30:50;98672.44;;;15.42;93.89
5238;BME280;2639;49.700;7.962;2023-06-26T04:31:55;98670.00;;;15.45;94.06
5238;BME280;2639;49.700;7.962;2023-06-26T04:33:00;98669.22;;;15.46;94.25
5238;BME280;2639;49.700;7.962;2023-06-26T04:34:04;98664.97;;;15.48;94.90
5238;BME280;2639;49.700;7.962;2023-06-26T04:35:06;98671.06;;;15.48;94.21
5238;BME280;2639;49.700;7.962;2023-06-26T04:36:11;98660.78;;;15.50;93.81
5238;BME280;2639;49.700;7.962;2023-06-26T04:37:14;98662.59;;;15.51;93.52
5238;BME280;2639;49.700;7.962;2023-06-26T04:38:19;98661.75;;;15.52;93.26
5238;BME280;2639;49.700;7.962;2023-06-26T04:39:22;98666.16;;;15.53;93.29
5238;BME280;2639;49.700;7.962;2023-06-26T04:40:27;98658.53;;;15.56;93.66
5238;BME280;2639;49.700;7.962;2023-06-26T04:41:29;98660.31;;;15.57;93.00
5238;BME280;2639;49.700;7.962;2023-06-26T04:42:32;98657.72;;;15.57;93.33
5238;BME280;2639;49.700;7.962;2023-06-26T04:43:34;98669.03;;;15.59;94.35
5238;BME280;2639;49.700;7.962;2023-06-26T04:44:38;98663.97;;;15.61;94.27
5238;BME280;2639;49.700;7.962;2023-06-26T04:45:40;98661.53;;;15.64;94.45
5238;BME280;2639;49.700;7.962;2023-06-26T04:46:43;98655.63;;;15.66;93.86
5238;BME280;2639;49.700;7.962;2023-06-26T04:47:46;98657.41;;;15.67;93.96
5238;BME280;2639;49.700;7.962;2023-06-26T04:48:49;98657.59;;;15.70;94.56
5238;BME280;2639;49.700;7.962;2023-06-26T04:49:52;98661.16;;;15.72;94.39
5238;BME280;2639;49.700;7.962;2023-06-26T04:50:56;98649.19;;;15.74;94.27
5238;BME280;2639;49.700;7.962;2023-06-26T04:51:58;98656.31;;;15.78;94.12
5238;BME280;2639;49.700;7.962;2023-06-26T04:53:02;98658.25;;;15.83;94.10
5238;BME280;2639;49.700;7.962;2023-06-26T04:54:04;98663.75;;;15.89;94.65
5238;BME280;2639;49.700;7.962;2023-06-26T04:55:07;98655.34;;;15.93;94.70
5238;BME280;2639;49.700;7.962;2023-06-26T04:56:11;98655.50;;;15.96;94.09
5238;BME280;2639;49.700;7.962;2023-06-26T04:57:14;98660.84;;;15.99;93.82
5238;BME280;2639;49.700;7.962;2023-06-26T04:58:17;98654.94;;;16.02;93.18
5238;BME280;2639;49.700;7.962;2023-06-26T04:59:20;98654.19;;;16.04;92.81
5238;BME280;2639;49.700;7.962;2023-06-26T05:00:22;98660.34;;;16.06;93.43
5238;BME280;2639;49.700;7.962;2023-06-26T05:01:26;98661.47;;;16.11;93.67
5238;BME280;2639;49.700;7.962;2023-06-26T05:02:31;98649.50;;;16.13;94.05
5238;BME280;2639;49.700;7.962;2023-06-26T07:19:51;98637.16;;;25.99;53.18
5238;BME280;2639;49.700;7.962;2023-06-26T07:20:54;98633.69;;;26.00;54.19
5238;BME280;2639;49.700;7.962;2023-06-26T07:21:56;98647.69;;;25.99;54.10
5238;BME280;2639;49.700;7.962;2023-06-26T07:22:59;98648.53;;;25.96;53.87
5238;BME280;2639;49.700;7.962;2023-06-26T07:24:03;98647.69;;;25.99;52.36
5238;BME280;2639;49.700;7.962;2023-06-26T07:25:05;98647.75;;;26.02;53.15
5238;BME280;2639;49.700;7.962;2023-06-26T07:26:11;98647.78;;;26.05;54.24
5238;BME280;2639;49.700;7.962;2023-06-26T07:27:14;98649.59;;;26.09;52.96
5238;BME280;2639;49.700;7.962;2023-06-26T07:28:17;98640.88;;;26.16;54.27
5238;BME280;2639;49.700;7.962;2023-06-26T07:29:20;98641.84;;;26.26;54.60
5238;BME280;2639;49.700;7.962;2023-06-26T07:30:22;98641.91;;;26.34;54.06
5238;BME280;2639;49.700;7.962;2023-06-26T07:31:28;98641.97;;;26.38;53.44
5238;BME280;2639;49.700;7.962;2023-06-26T07:32:31;98644.66;;;26.43;53.75
5238;BME280;2639;49.700;7.962;2023-06-26T07:33:34;98639.38;;;26.40;52.80
5238;BME280;2639;49.700;7.962;2023-06-26T07:34:37;98649.03;;;26.42;52.53
5238;BME280;2639;49.700;7.962;2023-06-26T07:35:41;98642.88;;;26.39;53.00
5238;BME280;2639;49.700;7.962;2023-06-26T07:36:44;98648.09;;;26.36;53.14
5238;BME280;2639;49.700;7.962;2023-06-26T07:37:48;98645.44;;;26.33;52.98
5238;BME280;2639;49.700;7.962;2023-06-26T07:38:50;98645.41;;;26.31;54.04
5238;BME280;2639;49.700;7.962;2023-06-26T07:39:53;98648.09;;;26.34;53.60
5238;BME280;2639;49.700;7.962;2023-06-26T07:40:55;98652.47;;;26.35;53.61
5238;BME280;2639;49.700;7.962;2023-06-26T07:41:59;98653.34;;;26.36;53.76
5238;BME280;2639;49.700;7.962;2023-06-26T07:43:01;98649.88;;;26.37;54.20
5238;BME280;2639;49.700;7.962;2023-06-26T07:44:04;98655.16;;;26.37;54.18
5238;BME280;2639;49.700;7.962;2023-06-26T07:45:08;98655.97;;;26.33;54.48
5238;BME280;2639;49.700;7.962;2023-06-26T07:46:17;98652.34;;;26.24;53.91
5238;BME280;2639;49.700;7.962;2023-06-26T07:47:24;98656.72;;;26.18;53.96
5238;BME280;2639;49.700;7.962;2023-06-26T07:48:26;98661.91;;;26.13;54.12
5238;BME280;2639;49.700;7.962;2023-06-26T07:49:29;98657.50;;;26.12;54.51
5238;BME280;2639;49.700;7.962;2023-06-26T07:50:32;98664.53;;;26.12;54.07
5238;BME280;2639;49.700;7.962;2023-06-26T07:51:37;98663.59;;;26.08;54.20
5238;BME280;2639;49.700;7.962;2023-06-26T07:52:41;98659.22;;;26.07;54.48
5238;BME280;2639;49.700;7.962;2023-06-26T07:53:43;98658.31;;;26.05;54.80
5238;BME280;2639;49.700;7.962;2023-06-26T07:54:46;98666.19;;;26.05;55.15
5238;BME280;2639;49.700;7.962;2023-06-26T07:55:49;98652.19;;;26.08;54.80
5238;BME280;2639;49.700;7.962;2023-06-26T07:56:54;98667.19;;;26.13;55.60
5238;BME280;2639;49.700;7.962;2023-06-26T07:57:56;98668.97;;;26.17;55.87
5238;BME280;2639;49.700;7.962;2023-06-26T07:58:59;98669.00;;;26.20;56.32
5238;BME280;2639;49.700;7.962;2023-06-26T08:00:06;98658.53;;;26.27;56.03
5238;BME280;2639;49.700;7.962;2023-06-26T08:01:16;98662.94;;;26.29;55.90
5238;BME280;2639;49.700;7.962;2023-06-26T08:02:19;98674.38;;;26.30;54.78
5238;BME280;2639;49.700;7.962;2023-06-26T08:03:21;98665.53;;;26.24;54.65
5238;BME280;2639;49.700;7.962;2023-06-26T08:04:36;98664.59;;;26.19;54.69
5238;BME280;2639;49.700;7.962;2023-06-26T08:05:39;98669.00;;;26.20;54.60
5238;BME280;2639;49.700;7.962;2023-06-26T08:06:43;98667.22;;;26.16;54.10
5238;BME280;2639;49.700;7.962;2023-06-26T08:07:46;98674.19;;;26.11;54.44
5238;BME280;2639;49.700;7.962;2023-06-26T08:08:49;98674.13;;;26.08;53.53
5238;BME280;2639;49.700;7.962;2023-06-26T08:09:52;98671.41;;;26.00;54.43
5238;BME280;2639;49.700;7.962;2023-06-26T08:10:55;98670.56;;;26.06;54.47
5238;BME280;2639;49.700;7.962;2023-06-26T08:11:58;98676.78;;;26.10;55.01
5238;BME280;2639;49.700;7.962;2023-06-26T08:13:01;98686.44;;;26.09;54.47
5238;BME280;2639;49.700;7.962;2023-06-26T08:14:04;98676.81;;;26.13;54.15
5238;BME280;2639;49.700;7.962;2023-06-26T08:15:10;98687.34;;;26.11;54.54
5238;BME280;2639;49.700;7.962;2023-06-26T08:16:13;98692.50;;;26.05;53.41
5238;BME280;2639;49.700;7.962;2023-06-26T08:17:15;98689.78;;;25.99;54.37
5238;BME280;2639;49.700;7.962;2023-06-26T08:18:19;98689.88;;;26.05;54.85
5238;BME280;2639;49.700;7.962;2023-06-26T08:19:22;98684.75;;;26.17;54.77
5238;BME280;2639;49.700;7.962;2023-06-26T08:20:24;98693.59;;;26.21;53.76
5238;BME280;2639;49.700;7.962;2023-06-26T08:21:30;98690.03;;;26.19;52.82
5238;BME280;2639;49.700;7.962;2023-06-26T08:22:34;98699.66;;;26.17;53.09
5238;BME280;2639;49.700;7.962;2023-06-26T08:23:38;98696.97;;;26.09;53.57
5238;BME280;2639;49.700;7.962;2023-06-26T08:24:40;98699.59;;;26.09;54.16
5238;BME280;2639;49.700;7.962;2023-06-26T08:25:43;98700.50;;;26.11;54.91
5238;BME280;2639;49.700;7.962;2023-06-26T08:26:48;98705.75;;;26.11;54.25
5238;BME280;2639;49.700;7.962;2023-06-26T08:27:51;98700.53;;;26.17;54.63
5238;BME280;2639;49.700;7.962;2023-06-26T08:28:55;98697.13;;;26.24;53.95
5238;BME280;2639;49.700;7.962;2023-06-26T08:29:58;98691.94;;;26.34;54.88
5238;BME280;2639;49.700;7.962;2023-06-26T08:31:01;98687.63;;;26.39;55.08
5238;BME280;2639;49.700;7.962;2023-06-26T08:32:04;98683.22;;;26.38;54.77
5238;BME280;2639;49.700;7.962;2023-06-26T08:33:07;98687.63;;;26.37;54.72
5238;BME280;2639;49.700;7.962;2023-06-26T08:34:14;98682.38;;;26.40;54.44
5238;BME280;2639;49.700;7.962;2023-06-26T08:35:18;98672.72;;;26.41;53.03
5238;BME280;2639;49.700;7.962;2023-06-26T08:36:21;98677.19;;;26.48;54.06
5238;BME280;2639;49.700;7.962;2023-06-26T08:37:24;98671.06;;;26.52;54.14
5238;BME280;2639;49.700;7.962;2023-06-26T08:38:29;98671.09;;;26.54;53.25
5238;BME280;2639;49.700;7.962;2023-06-26T08:39:31;98676.50;;;26.64;53.53
5238;BME280;2639;49.700;7.962;2023-06-26T08:40:34;98678.28;;;26.69;53.33
5238;BME280;2639;49.700;7.962;2023-06-26T08:41:38;98681.00;;;26.78;53.11
5238;BME280;2639;49.700;7.962;2023-06-26T08:42:42;98685.44;;;26.82;53.35
5238;BME280;2639;49.700;7.962;2023-06-26T08:43:44;98683.72;;;26.89;54.26
5238;BME280;2639;49.700;7.962;2023-06-26T08:44:48;98695.19;;;26.94;52.65
5238;BME280;2639;49.700;7.962;2023-06-26T08:46:02;98697.78;;;26.89;52.94
5238;BME280;2639;49.700;7.962;2023-06-26T08:47:06;98695.16;;;26.88;53.04
5238;BME280;2639;49.700;7.962;2023-06-26T08:48:10;98688.97;;;26.87;52.38
5238;BME280;2639;49.700;7.962;2023-06-26T08:49:15;98694.25;;;26.84;53.21
5238;BME280;2639;49.700;7.962;2023-06-26T08:50:23;98689.00;;;26.89;53.79
5238;BME280;2639;49.700;7.962;2023-06-26T08:51:28;98685.56;;;26.97;53.87
5238;BME280;2639;49.700;7.962;2023-06-26T08:52:35;98677.72;;;27.08;53.49
5238;BME280;2639;49.700;7.962;2023-06-26T08:53:50;98677.75;;;27.13;53.50
5238;BME280;2639;49.700;7.962;2023-06-26T08:54:58;98680.41;;;27.13;52.84
5238;BME280;2639;49.700;7.962;2023-06-26T08:56:02;98682.28;;;27.24;53.25
5238;BME280;2639;49.700;7.962;2023-06-26T08:57:05;98677.09;;;27.38;52.78
5238;BME280;2639;49.700;7.962;2023-06-26T08:58:10;98678.03;;;27.46;52.13
5238;BME280;2639;49.700;7.962;2023-06-26T08:59:14;98674.59;;;27.61;52.02
5238;BME280;2639;49.700;7.962;2023-06-26T09:00:17;98679.94;;;27.75;52.09
5238;BME280;2639;49.700;7.962;2023-06-26T09:01:20;98677.31;;;27.81;52.73
5238;BME280;2639;49.700;7.962;2023-06-26T09:02:23;98680.88;;;27.85;51.89
5238;BME280;2639;49.700;7.962;2023-06-26T09:03:27;98688.84;;;27.91;52.42
5238;BME280;2639;49.700;7.962;2023-06-26T09:04:30;98680.94;;;27.99;52.43
5238;BME280;2639;49.700;7.962;2023-06-26T09:05:34;98683.59;;;28.03;51.71
5238;BME280;2639;49.700;7.962;2023-06-26T09:06:36;98677.47;;;28.06;51.43
5238;BME280;2639;49.700;7.962;2023-06-26T09:07:41;98691.53;;;28.08;51.45
5238;BME280;2639;49.700;7.962;2023-06-26T09:08:45;98689.75;;;28.01;51.37
5238;BME280;2639;49.700;7.962;2023-06-26T09:09:48;98691.50;;;27.97;52.45
5238;BME280;2639;49.700;7.962;2023-06-26T09:10:51;98686.22;;;27.99;51.82
5238;BME280;2639;49.700;7.962;2023-06-26T09:11:54;98687.97;;;27.94;52.72
5238;BME280;2639;49.700;7.962;2023-06-26T09:12:57;98687.09;;;27.95;53.33
5238;BME280;2639;49.700;7.962;2023-06-26T09:14:03;98688.84;;;27.88;52.71
5238;BME280;2639;49.700;7.962;2023-06-26T09:15:07;98687.88;;;27.81;52.93
5238;BME280;2639;49.700;7.962;2023-06-26T09:16:11;98693.19;;;27.84;51.97
5238;BME280;2639;49.700;7.962;2023-06-26T09:17:14;98702.81;;;27.75;52.37
5238;BME280;2639;49.700;7.962;2023-06-26T09:18:18;98700.13;;;27.67;51.98
5238;BME280;2639;49.700;7.962;2023-06-26T09:19:21;98692.16;;;27.58;52.33
5238;BME280;2639;49.700;7.962;2023-06-26T09:20:27;98696.56;;;27.59;52.15
5238;BME280;2639;49.700;7.962;2023-06-26T09:21:30;98693.97;;;27.62;52.18
5238;BME280;2639;49.700;7.962;2023-06-26T09:22:36;98693.97;;;27.66;52.49
5238;BME280;2639;49.700;7.962;2023-06-26T09:23:42;98693.97;;;27.66;53.03
5238;BME280;2639;49.700;7.962;2023-06-26T09:24:47;98696.59;;;27.62;51.62
5238;BME280;2639;49.700;7.962;2023-06-26T09:25:51;98690.47;;;27.69;52.87
5238;BME280;2639;49.700;7.962;2023-06-26T09:26:54;98696.59;;;27.68;52.59
5238;BME280;2639;49.700;7.962;2023-06-26T09:27:58;98687.78;;;27.63;52.33
5238;BME280;2639;49.700;7.962;2023-06-26T09:29:00;98696.59;;;27.65;51.80
5238;BME280;2639;49.700;7.962;2023-06-26T09:30:05;98684.31;;;27.67;52.78
5238;BME280;2639;49.700;7.962;2023-06-26T09:31:09;98689.59;;;27.70;52.29
5238;BME280;2639;49.700;7.962;2023-06-26T09:32:13;98694.03;;;27.79;53.18
5238;BME280;2639;49.700;7.962;2023-06-26T09:33:17;98689.72;;;27.88;53.24
5238;BME280;2639;49.700;7.962;2023-06-26T09:34:21;98687.97;;;27.94;52.25
5238;BME280;2639;49.700;7.962;2023-06-26T09:35:27;98693.28;;;27.97;51.64
5238;BME280;2639;49.700;7.962;2023-06-26T09:36:30;98696.78;;;27.99;52.48
5238;BME280;2639;49.700;7.962;2023-06-26T09:37:39;98691.53;;;28.06;52.88
5238;BME280;2639;49.700;7.962;2023-06-26T09:38:42;98689.78;;;28.15;51.75
5238;BME280;2639;49.700;7.962;2023-06-26T09:39:44;98692.50;;;28.27;51.27
5238;BME280;2639;49.700;7.962;2023-06-26T09:40:49;98684.59;;;28.38;51.53
5238;BME280;2639;49.700;7.962;2023-06-26T09:41:52;98683.75;;;28.49;51.64
5238;BME280;2639;49.700;7.962;2023-06-26T09:43:02;98687.28;;;28.59;51.39
5238;BME280;2639;49.700;7.962;2023-06-26T09:44:06;98680.28;;;28.67;51.00
5238;BME280;2639;49.700;7.962;2023-06-26T09:45:18;98684.69;;;28.71;51.42
5238;BME280;2639;49.700;7.962;2023-06-26T09:46:24;98686.44;;;28.82;51.26
5238;BME280;2639;49.700;7.962;2023-06-26T09:47:30;98692.63;;;28.88;50.21
5238;BME280;2639;49.700;7.962;2023-06-26T09:48:33;98690.88;;;28.97;49.93
5238;BME280;2639;49.700;7.962;2023-06-26T09:49:41;98688.25;;;29.10;50.41
5238;BME280;2639;49.700;7.962;2023-06-26T09:50:43;98690.88;;;29.20;50.93
5238;BME280;2639;49.700;7.962;2023-06-26T09:52:06;98691.72;;;29.31;51.33
5238;BME280;2639;49.700;7.962;2023-06-26T09:53:12;98686.44;;;29.28;48.84
5238;BME280;2639;49.700;7.962;2023-06-26T09:54:16;98697.91;;;29.34;49.47
5238;BME280;2639;49.700;7.962;2023-06-26T09:55:46;98685.56;;;29.41;48.85
5238;BME280;2639;49.700;7.962;2023-06-26T09:57:34;98686.41;;;29.49;49.16
5238;BME280;2639;49.700;7.962;2023-06-26T09:58:39;98689.94;;;29.51;48.08
5238;BME280;2639;49.700;7.962;2023-06-26T09:59:43;98695.22;;;29.57;48.59
5238;BME280;2639;49.700;7.962;2023-06-26T10:00:46;98689.03;;;29.58;48.98
5238;BME280;2639;49.700;7.962;2023-06-26T10:01:48;98696.97;;;29.58;47.78
5238;BME280;2639;49.700;7.962;2023-06-26T10:02:51;98695.19;;;29.61;47.74
5238;BME280;2639;49.700;7.962;2023-06-26T10:03:54;98688.13;;;29.63;48.44
5238;BME280;2639;49.700;7.962;2023-06-26T10:04:58;98688.16;;;29.69;47.62
5238;BME280;2639;49.700;7.962;2023-06-26T10:06:02;98683.72;;;29.77;47.71
5238;BME280;2639;49.700;7.962;2023-06-26T10:07:06;98689.88;;;29.85;48.87
5238;BME280;2639;49.700;7.962;2023-06-26T10:08:11;98688.97;;;29.92;48.52
5238;BME280;2639;49.700;7.962;2023-06-26T10:09:17;98693.34;;;29.99;47.63
5238;BME280;2639;49.700;7.962;2023-06-26T10:10:20;98703.94;;;29.99;46.68
5238;BME280;2639;49.700;7.962;2023-06-26T10:11:25;98693.38;;;29.89;46.85
5238;BME280;2639;49.700;7.962;2023-06-26T10:12:34;98697.78;;;29.87;47.26
5238;BME280;2639;49.700;7.962;2023-06-26T10:13:38;98700.44;;;29.88;46.93
5238;BME280;2639;49.700;7.962;2023-06-26T10:14:45;98696.91;;;29.94;47.91
5238;BME280;2639;49.700;7.962;2023-06-26T10:15:50;98686.34;;;29.89;47.16
5238;BME280;2639;49.700;7.962;2023-06-26T10:16:56;98686.34;;;29.77;45.65
5238;BME280;2639;49.700;7.962;2023-06-26T10:17:59;98690.78;;;29.72;46.92
5238;BME280;2639;49.700;7.962;2023-06-26T10:19:04;98683.75;;;29.75;47.92
5238;BME280;2639;49.700;7.962;2023-06-26T10:20:09;98688.16;;;29.69;46.32
5238;BME280;2639;49.700;7.962;2023-06-26T10:21:12;98689.91;;;29.67;47.45
5238;BME280;2639;49.700;7.962;2023-06-26T10:22:17;98693.44;;;29.63;47.51
5238;BME280;2639;49.700;7.962;2023-06-26T10:23:23;98696.97;;;29.55;46.40
5238;BME280;2639;49.700;7.962;2023-06-26T10:24:28;98692.63;;;29.45;45.48
5238;BME280;2639;49.700;7.962;2023-06-26T10:25:31;98683.78;;;29.42;46.55
5238;BME280;2639;49.700;7.962;2023-06-26T10:26:38;98687.31;;;29.44;47.50
5238;BME280;2639;49.700;7.962;2023-06-26T10:27:46;98689.06;;;29.52;45.34
5238;BME280;2639;49.700;7.962;2023-06-26T10:28:50;98682.00;;;29.53;45.71
5238;BME280;2639;49.700;7.962;2023-06-26T10:29:56;98679.31;;;29.67;45.47
5238;BME280;2639;49.700;7.962;2023-06-26T10:31:00;98679.28;;;29.79;46.41
5238;BME280;2639;49.700;7.962;2023-06-26T10:32:04;98678.38;;;29.94;45.81
5238;BME280;2639;49.700;7.962;2023-06-26T10:33:09;98672.13;;;30.06;46.68
5238;BME280;2639;49.700;7.962;2023-06-26T10:34:12;98669.44;;;30.13;45.00
5238;BME280;2639;49.700;7.962;2023-06-26T10:35:14;98666.78;;;30.15;44.44
5238;BME280;2639;49.700;7.962;2023-06-26T10:36:17;98672.03;;;30.21;45.42
5238;BME280;2639;49.700;7.962;2023-06-26T10:37:20;98672.94;;;30.20;44.51
5238;BME280;2639;49.700;7.962;2023-06-26T10:38:48;98680.88;;;30.20;45.58
5238;BME280;2639;49.700;7.962;2023-06-26T10:39:52;98668.56;;;30.13;44.92
5238;BME280;2639;49.700;7.962;2023-06-26T10:40:56;98670.34;;;30.11;44.60
5238;BME280;2639;49.700;7.962;2023-06-26T10:42:08;98680.91;;;30.14;45.78
5238;BME280;2639;49.700;7.962;2023-06-26T10:43:13;98681.84;;;30.07;45.14
5238;BME280;2639;49.700;7.962;2023-06-26T10:44:17;98685.41;;;29.93;44.46
5238;BME280;2639;49.700;7.962;2023-06-26T10:45:20;98679.25;;;29.94;44.88
5238;BME280;2639;49.700;7.962;2023-06-26T10:46:23;98678.34;;;29.95;44.30
5238;BME280;2639;49.700;7.962;2023-06-26T10:47:29;98690.72;;;29.90;45.06
5238;BME280;2639;49.700;7.962;2023-06-26T10:48:31;98678.44;;;29.80;44.23
5238;BME280;2639;49.700;7.962;2023-06-26T10:49:35;98672.22;;;29.81;45.33
5238;BME280;2639;49.700;7.962;2023-06-26T10:50:37;98675.75;;;29.89;44.63
5238;BME280;2639;49.700;7.962;2023-06-26T10:51:45;98678.34;;;29.97;44.46
5238;BME280;2639;49.700;7.962;2023-06-26T10:53:08;98675.63;;;30.11;44.21
5238;BME280;2639;49.700;7.962;2023-06-26T10:54:13;98679.13;;;30.22;43.91
5238;BME280;2639;49.700;7.962;2023-06-26T10:55:16;98673.78;;;30.30;44.76
5238;BME280;2639;49.700;7.962;2023-06-26T10:56:41;98671.97;;;30.39;43.67
5238;BME280;2639;49.700;7.962;2023-06-26T10:57:45;98673.69;;;30.50;43.58
5238;BME280;2639;49.700;7.962;2023-06-26T10:58:52;98676.28;;;30.59;44.36
5238;BME280;2639;49.700;7.962;2023-06-26T11:00:08;98673.56;;;30.68;42.90
5238;BME280;2639;49.700;7.962;2023-06-26T11:01:16;98684.97;;;30.75;43.37
5238;BME280;2639;49.700;7.962;2023-06-26T11:02:19;98684.06;;;30.77;42.19
5238;BME280;2639;49.700;7.962;2023-06-26T11:03:22;98679.66;;;30.76;40.63
5238;BME280;2639;49.700;7.962;2023-06-26T11:04:37;98680.56;;;30.75;41.52
5238;BME280;2639;49.700;7.962;2023-06-26T11:05:39;98684.06;;;30.80;42.18
5238;BME280;2639;49.700;7.962;2023-06-26T11:06:45;98683.19;;;30.78;41.43
5238;BME280;2639;49.700;7.962;2023-06-26T11:08:03;98680.63;;;30.66;41.78
5238;BME280;2639;49.700;7.962;2023-06-26T11:09:08;98677.19;;;30.52;41.94
5238;BME280;2639;49.700;7.962;2023-06-26T11:10:16;98673.63;;;30.56;41.49
5238;BME280;2639;49.700;7.962;2023-06-26T11:11:19;98671.75;;;30.70;43.36
5238;BME280;2639;49.700;7.962;2023-06-26T11:12:34;98674.44;;;30.67;41.22
5238;BME280;2639;49.700;7.962;2023-06-26T11:13:38;98684.16;;;30.65;40.86